Terminal Aerodrome Forecast
Issued by NWS Milwaukee/Sullivan, WI

Home | Current Version | Previous Version | Text Only | Print | Product List | Glossary On
Versions: 1 2 3 4 5 6 7 8 9 10 11 12 13 14 15 16 17 18 19 20 21 22 23 24 25 26 27 28 29 30 31 32 33 34 35 36 37 38 39 40 41 42 43 44 45 46 47 48 49 50
000
FTUS43 KMKX 301748
TAFMKE
TAF
KMKE 301748Z 3018/0124 05013G21KT 2SM -SHRA OVC005
     FM302000 04015G23KT 5SM BR OVC005
     FM010000 05013KT 4SM -SHRA VCTS OVC003CB
     FM010700 14007KT P6SM VCSH OVC003
     FM011200 20009KT P6SM OVC008
     FM011500 19012KT P6SM BKN020
     FM011800 20015G24KT 6SM -SHRA OVC020=

USA.gov is the U.S. government's official web portal to all federal, state and local government web resources and services.